sensor_id;sensor_type;location;lat;lon;timestamp;pressure;altitude;pressure_sealevel;temperature;humidity
62634;BME280;48704;50.534;6.442;2023-03-22T00:02:02;95091.81;;;6.85;100.00
62634;BME280;48704;50.534;6.442;2023-03-22T00:04:28;95097.50;;;6.82;100.00
62634;BME280;48704;50.534;6.442;2023-03-22T00:06:53;95085.50;;;6.76;100.00
62634;BME280;48704;50.534;6.442;2023-03-22T00:09:18;95093.22;;;6.71;100.00
62634;BME280;48704;50.534;6.442;2023-03-22T00:11:44;95099.66;;;6.78;100.00
62634;BME280;48704;50.534;6.442;2023-03-22T00:14:10;95096.28;;;6.74;100.00
62634;BME280;48704;50.534;6.442;2023-03-22T00:16:35;95095.66;;;6.69;100.00
62634;BME280;48704;50.534;6.442;2023-03-22T00:19:00;95086.13;;;6.70;100.00
62634;BME280;48704;50.534;6.442;2023-03-22T00:21:26;95099.34;;;6.76;100.00
62634;BME280;48704;50.534;6.442;2023-03-22T00:23:51;95089.97;;;6.73;100.00
62634;BME280;48704;50.534;6.442;2023-03-22T00:26:16;95086.91;;;6.71;100.00
62634;BME280;48704;50.534;6.442;2023-03-22T00:28:42;95076.00;;;6.67;100.00
62634;BME280;48704;50.534;6.442;2023-03-22T00:31:08;95076.59;;;6.71;100.00
62634;BME280;48704;50.534;6.442;2023-03-22T00:33:34;95076.59;;;6.71;100.00
62634;BME280;48704;50.534;6.442;2023-03-22T00:36:05;95074.47;;;6.66;100.00
62634;BME280;48704;50.534;6.442;2023-03-22T00:38:31;95074.34;;;6.61;100.00
62634;BME280;48704;50.534;6.442;2023-03-22T00:43:32;95059.72;;;6.60;100.00
62634;BME280;48704;50.534;6.442;2023-03-22T00:45:57;95054.19;;;6.60;100.00
62634;BME280;48704;50.534;6.442;2023-03-22T00:48:22;95059.13;;;6.56;100.00
62634;BME280;48704;50.534;6.442;2023-03-22T00:50:48;95045.56;;;6.58;100.00
62634;BME280;48704;50.534;6.442;2023-03-22T00:53:13;95047.13;;;6.59;100.00
62634;BME280;48704;50.534;6.442;2023-03-22T00:55:38;95045.28;;;6.56;100.00
62634;BME280;48704;50.534;6.442;2023-03-22T00:58:03;95035.13;;;6.62;100.00
62634;BME280;48704;50.534;6.442;2023-03-22T01:00:29;95034.50;;;6.58;100.00
62634;BME280;48704;50.534;6.442;2023-03-22T01:02:55;95036.66;;;6.63;100.00
62634;BME280;48704;50.534;6.442;2023-03-22T01:05:24;95032.66;;;6.64;100.00
62634;BME280;48704;50.534;6.442;2023-03-22T01:07:49;95038.94;;;6.65;100.00
62634;BME280;48704;50.534;6.442;2023-03-22T01:10:16;95032.66;;;6.64;100.00
62634;BME280;48704;50.534;6.442;2023-03-22T01:12:41;95031.41;;;6.65;100.00
62634;BME280;48704;50.534;6.442;2023-03-22T01:15:07;95030.19;;;6.66;100.00
62634;BME280;48704;50.534;6.442;2023-03-22T01:17:32;95027.09;;;6.64;100.00
62634;BME280;48704;50.534;6.442;2023-03-22T01:19:58;95028.00;;;6.70;100.00
62634;BME280;48704;50.534;6.442;2023-03-22T01:22:23;95024.28;;;6.74;100.00
62634;BME280;48704;50.534;6.442;2023-03-22T01:24:49;95018.59;;;6.77;100.00
62634;BME280;48704;50.534;6.442;2023-03-22T01:27:15;95025.63;;;6.87;100.00
62634;BME280;48704;50.534;6.442;2023-03-22T01:29:40;95025.34;;;6.85;100.00
62634;BME280;48704;50.534;6.442;2023-03-22T01:32:05;95018.09;;;6.88;100.00
62634;BME280;48704;50.534;6.442;2023-03-22T01:34:31;95025.19;;;6.89;100.00
62634;BME280;48704;50.534;6.442;2023-03-22T01:36:56;95013.50;;;6.85;100.00
62634;BME280;48704;50.534;6.442;2023-03-22T01:39:21;95013.00;;;6.95;100.00
62634;BME280;48704;50.534;6.442;2023-03-22T01:41:47;95010.06;;;6.99;100.00
62634;BME280;48704;50.534;6.442;2023-03-22T01:44:14;95009.59;;;7.00;100.00
62634;BME280;48704;50.534;6.442;2023-03-22T01:46:41;95005.59;;;7.01;100.00
62634;BME280;48704;50.534;6.442;2023-03-22T01:49:13;95007.88;;;7.03;100.00
62634;BME280;48704;50.534;6.442;2023-03-22T01:51:40;95014.97;;;7.04;100.00
62634;BME280;48704;50.534;6.442;2023-03-22T01:54:10;94996.81;;;7.03;100.00
62634;BME280;48704;50.534;6.442;2023-03-22T01:56:39;94997.09;;;7.05;100.00
62634;BME280;48704;50.534;6.442;2023-03-22T01:59:06;94998.34;;;7.04;100.00
62634;BME280;48704;50.534;6.442;2023-03-22T02:01:33;94999.13;;;7.04;100.00
62634;BME280;48704;50.534;6.442;2023-03-22T02:04:08;94996.75;;;7.12;100.00
62634;BME280;48704;50.534;6.442;2023-03-22T02:06:37;94977.06;;;7.10;100.00
62634;BME280;48704;50.534;6.442;2023-03-22T02:09:04;94969.41;;;7.05;100.00
62634;BME280;48704;50.534;6.442;2023-03-22T02:11:35;94952.50;;;7.03;100.00
62634;BME280;48704;50.534;6.442;2023-03-22T02:14:17;94962.59;;;7.06;100.00
62634;BME280;48704;50.534;6.442;2023-03-22T02:22:46;94950.94;;;7.02;100.00
62634;BME280;48704;50.534;6.442;2023-03-22T02:26:00;94938.69;;;6.94;100.00
62634;BME280;48704;50.534;6.442;2023-03-22T02:28:40;94938.84;;;6.90;100.00
62634;BME280;48704;50.534;6.442;2023-03-22T02:31:23;94932.88;;;6.83;100.00
62634;BME280;48704;50.534;6.442;2023-03-22T02:39:49;94937.06;;;6.78;100.00
62634;BME280;48704;50.534;6.442;2023-03-22T02:42:52;94928.88;;;6.84;100.00
62634;BME280;48704;50.534;6.442;2023-03-22T02:45:53;94933.78;;;6.89;100.00
62634;BME280;48704;50.534;6.442;2023-03-22T02:48:28;94919.00;;;6.92;100.00
62634;BME280;48704;50.534;6.442;2023-03-22T02:51:25;94912.53;;;6.95;100.00
62634;BME280;48704;50.534;6.442;2023-03-22T02:54:03;94911.41;;;7.01;100.00
62634;BME280;48704;50.534;6.442;2023-03-22T02:56:53;94909.41;;;7.02;100.00
62634;BME280;48704;50.534;6.442;2023-03-22T02:59:21;94913.88;;;6.99;100.00
62634;BME280;48704;50.534;6.442;2023-03-22T03:01:51;94899.38;;;7.04;100.00
62634;BME280;48704;50.534;6.442;2023-03-22T03:04:22;94906.25;;;7.09;100.00
62634;BME280;48704;50.534;6.442;2023-03-22T03:06:51;94899.94;;;7.09;100.00
62634;BME280;48704;50.534;6.442;2023-03-22T03:09:18;94891.00;;;7.14;100.00
62634;BME280;48704;50.534;6.442;2023-03-22T03:11:46;94878.97;;;7.17;100.00
62634;BME280;48704;50.534;6.442;2023-03-22T03:14:38;94892.22;;;7.13;100.00
62634;BME280;48704;50.534;6.442;2023-03-22T03:17:21;94891.75;;;7.14;100.00
62634;BME280;48704;50.534;6.442;2023-03-22T03:20:22;94887.56;;;7.19;100.00
62634;BME280;48704;50.534;6.442;2023-03-22T03:23:15;94888.34;;;7.19;100.00
62634;BME280;48704;50.534;6.442;2023-03-22T03:25:58;94892.00;;;7.25;100.00
62634;BME280;48704;50.534;6.442;2023-03-22T03:28:44;94887.69;;;7.24;100.00
62634;BME280;48704;50.534;6.442;2023-03-22T03:31:22;94882.44;;;7.26;100.00
62634;BME280;48704;50.534;6.442;2023-03-22T03:34:01;94883.97;;;7.27;100.00
62634;BME280;48704;50.534;6.442;2023-03-22T03:36:29;94876.31;;;7.22;100.00
62634;BME280;48704;50.534;6.442;2023-03-22T03:38:58;94880.03;;;7.19;100.00
62634;BME280;48704;50.534;6.442;2023-03-22T03:41:27;94867.72;;;7.20;100.00
62634;BME280;48704;50.534;6.442;2023-03-22T03:43:55;94878.50;;;7.18;100.00
62634;BME280;48704;50.534;6.442;2023-03-22T03:46:25;94888.94;;;7.23;100.00
62634;BME280;48704;50.534;6.442;2023-03-22T03:48:52;94871.38;;;7.26;100.00
62634;BME280;48704;50.534;6.442;2023-03-22T03:51:19;94872.13;;;7.27;100.00
62634;BME280;48704;50.534;6.442;2023-03-22T03:53:45;94873.53;;;7.22;100.00
62634;BME280;48704;50.534;6.442;2023-03-22T03:56:11;94852.44;;;7.25;100.00
62634;BME280;48704;50.534;6.442;2023-03-22T03:58:36;94854.91;;;7.23;100.00
62634;BME280;48704;50.534;6.442;2023-03-22T04:01:02;94863.69;;;7.21;100.00
62634;BME280;48704;50.534;6.442;2023-03-22T04:03:28;94854.91;;;7.23;100.00
62634;BME280;48704;50.534;6.442;2023-03-22T04:05:54;94852.25;;;7.28;100.00
62634;BME280;48704;50.534;6.442;2023-03-22T04:08:20;94851.97;;;7.26;100.00
62634;BME280;48704;50.534;6.442;2023-03-22T04:10:48;94851.50;;;7.28;100.00
62634;BME280;48704;50.534;6.442;2023-03-22T04:13:14;94848.44;;;7.26;100.00
62634;BME280;48704;50.534;6.442;2023-03-22T04:15:40;94846.91;;;7.25;100.00
62634;BME280;48704;50.534;6.442;2023-03-22T04:18:05;94847.66;;;7.25;100.00
62634;BME280;48704;50.534;6.442;2023-03-22T04:20:31;94851.69;;;7.24;100.00
62634;BME280;48704;50.534;6.442;2023-03-22T04:22:56;94836.56;;;7.25;100.00
62634;BME280;48704;50.534;6.442;2023-03-22T04:25:22;94846.91;;;7.25;100.00
62634;BME280;48704;50.534;6.442;2023-03-22T04:27:47;94831.03;;;7.25;100.00
62634;BME280;48704;50.534;6.442;2023-03-22T04:30:15;94840.00;;;7.20;100.00
62634;BME280;48704;50.534;6.442;2023-03-22T04:32:48;94841.53;;;7.21;100.00
62634;BME280;48704;50.534;6.442;2023-03-22T04:35:14;94840.00;;;7.20;100.00
62634;BME280;48704;50.534;6.442;2023-03-22T04:37:40;94831.75;;;7.11;100.00
62634;BME280;48704;50.534;6.442;2023-03-22T04:40:07;94812.47;;;7.02;100.00
62634;BME280;48704;50.534;6.442;2023-03-22T04:42:33;94820.47;;;7.00;100.00
62634;BME280;48704;50.534;6.442;2023-03-22T04:44:59;94811.56;;;6.96;100.00
62634;BME280;48704;50.534;6.442;2023-03-22T04:47:25;94816.81;;;6.94;100.00
62634;BME280;48704;50.534;6.442;2023-03-22T04:49:50;94797.72;;;6.96;100.00
62634;BME280;48704;50.534;6.442;2023-03-22T04:52:16;94819.53;;;7.03;100.00
62634;BME280;48704;50.534;6.442;2023-03-22T04:54:41;94832.91;;;7.04;100.00
62634;BME280;48704;50.534;6.442;2023-03-22T04:57:06;94822.59;;;7.05;100.00
62634;BME280;48704;50.534;6.442;2023-03-22T04:59:32;94845.69;;;7.02;100.00
62634;BME280;48704;50.534;6.442;2023-03-22T05:01:57;94804.44;;;7.04;100.00
62634;BME280;48704;50.534;6.442;2023-03-22T05:04:23;94815.78;;;7.06;100.00
62634;BME280;48704;50.534;6.442;2023-03-22T05:06:48;94806.72;;;7.05;100.00
62634;BME280;48704;50.534;6.442;2023-03-22T05:09:14;94812.53;;;7.08;100.00
62634;BME280;48704;50.534;6.442;2023-03-22T05:11:40;94813.31;;;7.08;100.00
62634;BME280;48704;50.534;6.442;2023-03-22T05:14:06;94816.06;;;7.08;100.00
62634;BME280;48704;50.534;6.442;2023-03-22T05:16:32;94812.38;;;7.11;100.00
62634;BME280;48704;50.534;6.442;2023-03-22T05:18:57;94817.13;;;7.11;100.00
62634;BME280;48704;50.534;6.442;2023-03-22T05:21:24;94831.75;;;7.11;100.00
62634;BME280;48704;50.534;6.442;2023-03-22T05:23:56;94819.13;;;7.10;100.00
62634;BME280;48704;50.534;6.442;2023-03-22T05:26:23;94830.59;;;7.03;100.00
62634;BME280;48704;50.534;6.442;2023-03-22T05:28:51;94819.22;;;7.01;100.00
62634;BME280;48704;50.534;6.442;2023-03-22T05:31:17;94822.94;;;6.98;100.00
62634;BME280;48704;50.534;6.442;2023-03-22T05:33:48;94822.59;;;7.05;100.00
62634;BME280;48704;50.534;6.442;2023-03-22T05:36:15;94825.38;;;7.05;100.00
62634;BME280;48704;50.534;6.442;2023-03-22T05:38:40;94826.00;;;7.00;100.00
62634;BME280;48704;50.534;6.442;2023-03-22T05:41:06;94817.22;;;7.01;100.00
62634;BME280;48704;50.534;6.442;2023-03-22T05:43:31;94821.25;;;7.00;100.00
62634;BME280;48704;50.534;6.442;2023-03-22T05:45:56;94818.75;;;7.02;100.00
62634;BME280;48704;50.534;6.442;2023-03-22T05:48:22;94827.44;;;7.10;100.00
62634;BME280;48704;50.534;6.442;2023-03-22T05:50:47;94829.47;;;7.10;100.00
62634;BME280;48704;50.534;6.442;2023-03-22T05:53:12;94839.59;;;7.13;100.00
62634;BME280;48704;50.534;6.442;2023-03-22T05:55:37;94839.72;;;7.18;100.00
62634;BME280;48704;50.534;6.442;2023-03-22T05:58:03;94836.16;;;7.18;100.00
62634;BME280;48704;50.534;6.442;2023-03-22T06:00:29;94834.47;;;7.20;100.00
62634;BME280;48704;50.534;6.442;2023-03-22T06:02:56;94820.91;;;7.22;100.00
62634;BME280;48704;50.534;6.442;2023-03-22T06:05:27;94825.19;;;7.23;100.00
62634;BME280;48704;50.534;6.442;2023-03-22T06:07:52;94838.47;;;7.19;100.00
62634;BME280;48704;50.534;6.442;2023-03-22T06:10:18;94829.22;;;7.22;100.00
62634;BME280;48704;50.534;6.442;2023-03-22T06:12:43;94840.59;;;7.24;100.00
62634;BME280;48704;50.534;6.442;2023-03-22T06:15:09;94823.97;;;7.24;100.00
62634;BME280;48704;50.534;6.442;2023-03-22T06:17:35;94829.16;;;7.31;100.00
62634;BME280;48704;50.534;6.442;2023-03-22T06:20:02;94836.22;;;7.32;100.00
62634;BME280;48704;50.534;6.442;2023-03-22T06:22:33;94839.28;;;7.34;100.00
62634;BME280;48704;50.534;6.442;2023-03-22T06:24:58;94836.22;;;7.32;100.00
62634;BME280;48704;50.534;6.442;2023-03-22T06:27:25;94836.22;;;7.32;100.00
62634;BME280;48704;50.534;6.442;2023-03-22T06:29:50;94840.22;;;7.31;100.00
62634;BME280;48704;50.534;6.442;2023-03-22T06:32:18;94842.13;;;7.25;100.00
62634;BME280;48704;50.534;6.442;2023-03-22T06:34:44;94843.34;;;7.24;100.00
62634;BME280;48704;50.534;6.442;2023-03-22T06:37:09;94838.69;;;7.30;100.00
62634;BME280;48704;50.534;6.442;2023-03-22T06:39:35;94841.47;;;7.30;100.00
62634;BME280;48704;50.534;6.442;2023-03-22T06:42:00;94826.56;;;7.28;100.00
62634;BME280;48704;50.534;6.442;2023-03-22T06:44:25;94833.81;;;7.25;100.00
62634;BME280;48704;50.534;6.442;2023-03-22T06:46:51;94843.66;;;7.26;100.00
62634;BME280;48704;50.534;6.442;2023-03-22T06:49:16;94846.13;;;7.24;100.00
62634;BME280;48704;50.534;6.442;2023-03-22T06:51:43;94839.28;;;7.34;100.00
62634;BME280;48704;50.534;6.442;2023-03-22T06:54:08;94839.28;;;7.34;100.00
62634;BME280;48704;50.534;6.442;2023-03-22T06:56:33;94853.78;;;7.29;100.00
62634;BME280;48704;50.534;6.442;2023-03-22T06:58:59;94847.59;;;7.34;100.00
62634;BME280;48704;50.534;6.442;2023-03-22T07:01:24;94836.63;;;7.40;100.00
62634;BME280;48704;50.534;6.442;2023-03-22T07:03:49;94842.34;;;7.36;100.00
62634;BME280;48704;50.534;6.442;2023-03-22T07:06:15;94833.94;;;7.46;100.00
62634;BME280;48704;50.534;6.442;2023-03-22T07:08:40;94835.84;;;7.40;100.00
62634;BME280;48704;50.534;6.442;2023-03-22T07:11:05;94832.97;;;7.34;100.00
62634;BME280;48704;50.534;6.442;2023-03-22T07:13:31;94821.41;;;7.35;100.00
62634;BME280;48704;50.534;6.442;2023-03-22T07:15:58;94814.03;;;7.32;100.00
62634;BME280;48704;50.534;6.442;2023-03-22T07:18:24;94832.75;;;7.23;100.00
62634;BME280;48704;50.534;6.442;2023-03-22T07:20:49;94821.56;;;7.17;100.00
62634;BME280;48704;50.534;6.442;2023-03-22T07:23:15;94820.31;;;7.18;100.00
62634;BME280;48704;50.534;6.442;2023-03-22T07:25:41;94821.09;;;7.19;100.00
62634;BME280;48704;50.534;6.442;2023-03-22T07:28:06;94806.94;;;7.17;100.00
62634;BME280;48704;50.534;6.442;2023-03-22T07:30:32;94816.31;;;7.19;100.00
62634;BME280;48704;50.534;6.442;2023-03-22T07:33:01;94824.31;;;7.17;100.00
62634;BME280;48704;50.534;6.442;2023-03-22T07:35:26;94829.56;;;7.15;100.00
62634;BME280;48704;50.534;6.442;2023-03-22T07:37:51;94819.56;;;7.18;100.00
62634;BME280;48704;50.534;6.442;2023-03-22T07:40:17;94814.78;;;7.18;100.00
62634;BME280;48704;50.534;6.442;2023-03-22T07:42:42;94815.72;;;7.15;100.00
62634;BME280;48704;50.534;6.442;2023-03-22T07:45:08;94824.53;;;7.28;100.00
62634;BME280;48704;50.534;6.442;2023-03-22T07:47:33;94813.66;;;7.25;100.00
62634;BME280;48704;50.534;6.442;2023-03-22T07:49:59;94813.47;;;7.28;100.00
62634;BME280;48704;50.534;6.442;2023-03-22T07:52:24;94829.72;;;7.35;100.00
62634;BME280;48704;50.534;6.442;2023-03-22T07:54:49;94837.94;;;7.45;100.00
62634;BME280;48704;50.534;6.442;2023-03-22T07:57:15;94817.88;;;7.50;100.00
62634;BME280;48704;50.534;6.442;2023-03-22T07:59:40;94826.13;;;7.74;100.00
62634;BME280;48704;50.534;6.442;2023-03-22T08:02:09;94813.81;;;7.75;100.00
62634;BME280;48704;50.534;6.442;2023-03-22T08:04:35;94826.47;;;7.52;100.00
62634;BME280;48704;50.534;6.442;2023-03-22T08:07:00;94829.34;;;7.43;100.00
62634;BME280;48704;50.534;6.442;2023-03-22T08:09:25;94822.00;;;7.54;100.00
62634;BME280;48704;50.534;6.442;2023-03-22T08:11:51;94824.00;;;7.54;100.00
62634;BME280;48704;50.534;6.442;2023-03-22T08:14:16;94823.25;;;7.68;100.00
62634;BME280;48704;50.534;6.442;2023-03-22T08:16:42;94807.19;;;7.57;100.00
62634;BME280;48704;50.534;6.442;2023-03-22T08:19:09;94821.53;;;7.85;100.00
62634;BME280;48704;50.534;6.442;2023-03-22T08:21:34;94792.63;;;8.07;100.00
62634;BME280;48704;50.534;6.442;2023-03-22T08:24:00;94801.63;;;8.01;100.00
62634;BME280;48704;50.534;6.442;2023-03-22T08:26:25;94812.53;;;7.90;100.00
62634;BME280;48704;50.534;6.442;2023-03-22T08:28:51;94809.66;;;7.85;100.00
62634;BME280;48704;50.534;6.442;2023-03-22T08:31:16;94822.47;;;7.82;100.00
62634;BME280;48704;50.534;6.442;2023-03-22T08:33:43;94848.50;;;7.70;100.00
62634;BME280;48704;50.534;6.442;2023-03-22T08:36:11;94823.06;;;7.57;100.00
62634;BME280;48704;50.534;6.442;2023-03-22T08:38:37;94819.63;;;7.62;100.00
62634;BME280;48704;50.534;6.442;2023-03-22T08:41:02;94831.94;;;7.61;100.00
62634;BME280;48704;50.534;6.442;2023-03-22T08:43:28;94839.31;;;7.64;100.00
62634;BME280;48704;50.534;6.442;2023-03-22T08:45:53;94835.97;;;7.60;100.00
62634;BME280;48704;50.534;6.442;2023-03-22T08:48:18;94830.91;;;7.73;100.00
62634;BME280;48704;50.534;6.442;2023-03-22T08:50:44;94841.25;;;7.72;100.00
62634;BME280;48704;50.534;6.442;2023-03-22T08:53:09;94836.16;;;7.71;100.00
62634;BME280;48704;50.534;6.442;2023-03-22T08:55:35;94839.03;;;7.77;100.00
62634;BME280;48704;50.534;6.442;2023-03-22T08:58:01;94840.56;;;7.78;100.00
62634;BME280;48704;50.534;6.442;2023-03-22T09:00:28;94842.66;;;7.97;100.00
62634;BME280;48704;50.534;6.442;2023-03-22T09:02:53;94844.50;;;8.15;100.00
62634;BME280;48704;50.534;6.442;2023-03-22T09:05:19;94865.91;;;7.85;100.00
62634;BME280;48704;50.534;6.442;2023-03-22T09:07:44;94846.19;;;7.83;100.00
62634;BME280;48704;50.534;6.442;2023-03-22T09:10:10;94845.66;;;7.79;100.00
62634;BME280;48704;50.534;6.442;2023-03-22T09:12:36;94840.19;;;7.85;100.00
62634;BME280;48704;50.534;6.442;2023-03-22T09:15:02;94844.88;;;8.08;100.00
62634;BME280;48704;50.534;6.442;2023-03-22T09:17:27;94843.91;;;7.96;100.00
62634;BME280;48704;50.534;6.442;2023-03-22T09:19:52;94842.38;;;8.10;100.00
62634;BME280;48704;50.534;6.442;2023-03-22T09:22:18;94826.84;;;8.18;100.00
62634;BME280;48704;50.534;6.442;2023-03-22T09:24:43;94830.97;;;8.37;100.00
62634;BME280;48704;50.534;6.442;2023-03-22T09:27:08;94831.97;;;8.55;100.00
62634;BME280;48704;50.534;6.442;2023-03-22T09:29:34;94825.78;;;8.45;100.00
62634;BME280;48704;50.534;6.442;2023-03-22T09:31:59;94837.09;;;8.42;100.00
62634;BME280;48704;50.534;6.442;2023-03-22T09:34:24;94828.75;;;8.27;100.00
62634;BME280;48704;50.534;6.442;2023-03-22T09:36:51;94831.84;;;8.14;100.00
62634;BME280;48704;50.534;6.442;2023-03-22T09:39:17;94821.91;;;8.08;100.00
62634;BME280;48704;50.534;6.442;2023-03-22T09:41:50;94828.59;;;8.16;100.00
62634;BME280;48704;50.534;6.442;2023-03-22T09:44:23;94830.50;;;8.39;100.00
62634;BME280;48704;50.534;6.442;2023-03-22T09:46:53;94841.63;;;8.10;100.00
62634;BME280;48704;50.534;6.442;2023-03-22T09:49:22;94840.63;;;8.27;100.00
62634;BME280;48704;50.534;6.442;2023-03-22T09:51:52;94824.00;;;8.13;100.00
62634;BME280;48704;50.534;6.442;2023-03-22T09:54:19;94843.53;;;8.03;100.00
62634;BME280;48704;50.534;6.442;2023-03-22T09:57:01;94833.06;;;8.28;100.00
62634;BME280;48704;50.534;6.442;2023-03-22T09:59:37;94853.66;;;8.36;100.00
62634;BME280;48704;50.534;6.442;2023-03-22T10:02:23;94829.91;;;8.20;100.00
62634;BME280;48704;50.534;6.442;2023-03-22T10:05:02;94848.47;;;8.29;100.00
62634;BME280;48704;50.534;6.442;2023-03-22T10:10:13;94847.16;;;8.39;100.00
62634;BME280;48704;50.534;6.442;2023-03-22T10:13:05;94821.97;;;8.28;100.00
62634;BME280;48704;50.534;6.442;2023-03-22T10:15:40;94824.97;;;8.10;100.00
62634;BME280;48704;50.534;6.442;2023-03-22T10:18:12;94827.63;;;8.19;100.00
62634;BME280;48704;50.534;6.442;2023-03-22T10:20:48;94816.13;;;8.26;100.00
62634;BME280;48704;50.534;6.442;2023-03-22T10:23:25;94820.94;;;8.40;100.00
62634;BME280;48704;50.534;6.442;2023-03-22T10:25:52;94826.94;;;8.24;100.00
62634;BME280;48704;50.534;6.442;2023-03-22T10:28:22;94849.81;;;8.19;100.00
62634;BME280;48704;50.534;6.442;2023-03-22T10:30:54;94841.91;;;8.12;100.00
62634;BME280;48704;50.534;6.442;2023-03-22T10:36:08;94839.69;;;8.45;100.00
62634;BME280;48704;50.534;6.442;2023-03-22T10:41:28;94837.75;;;8.22;100.00
62634;BME280;48704;50.534;6.442;2023-03-22T10:43:57;94837.59;;;8.11;100.00
62634;BME280;48704;50.534;6.442;2023-03-22T10:46:27;94847.03;;;8.19;100.00
62634;BME280;48704;50.534;6.442;2023-03-22T10:48:57;94843.16;;;7.96;100.00
62634;BME280;48704;50.534;6.442;2023-03-22T10:51:25;94840.09;;;8.09;100.00
62634;BME280;48704;50.534;6.442;2023-03-22T10:53:53;94850.41;;;7.93;100.00
62634;BME280;48704;50.534;6.442;2023-03-22T10:56:20;94847.56;;;8.02;100.00
62634;BME280;48704;50.534;6.442;2023-03-22T10:58:46;94848.69;;;8.11;100.00
62634;BME280;48704;50.534;6.442;2023-03-22T11:01:24;94841.63;;;8.10;100.00
62634;BME280;48704;50.534;6.442;2023-03-22T11:03:52;94834.53;;;8.09;100.00
62634;BME280;48704;50.534;6.442;2023-03-22T11:06:26;94849.72;;;8.28;100.00
62634;BME280;48704;50.534;6.442;2023-03-22T11:08:58;94845.97;;;8.31;100.00
62634;BME280;48704;50.534;6.442;2023-03-22T11:11:33;94843.16;;;8.11;100.00
62634;BME280;48704;50.534;6.442;2023-03-22T11:14:15;94851.34;;;8.20;100.00
62634;BME280;48704;50.534;6.442;2023-03-22T11:16:51;94852.53;;;8.13;100.00
62634;BME280;48704;50.534;6.442;2023-03-22T11:19:26;94847.50;;;8.32;100.00
62634;BME280;48704;50.534;6.442;2023-03-22T11:21:56;94851.38;;;8.34;100.00
62634;BME280;48704;50.534;6.442;2023-03-22T11:24:24;94867.53;;;8.36;100.00
62634;BME280;48704;50.534;6.442;2023-03-22T11:27:16;94855.28;;;8.28;100.00
62634;BME280;48704;50.534;6.442;2023-03-22T11:29:45;94844.44;;;8.30;100.00
62634;BME280;48704;50.534;6.442;2023-03-22T11:32:25;94847.53;;;8.47;100.00
62634;BME280;48704;50.534;6.442;2023-03-22T11:35:28;94831.25;;;8.40;100.00
62634;BME280;48704;50.534;6.442;2023-03-22T11:37:54;94828.97;;;8.38;100.00
62634;BME280;48704;50.534;6.442;2023-03-22T11:40:30;94836.28;;;8.56;100.00
62634;BME280;48704;50.534;6.442;2023-03-22T11:45:34;94826.78;;;8.62;100.00
62634;BME280;48704;50.534;6.442;2023-03-22T11:48:05;94837.00;;;8.36;100.00
62634;BME280;48704;50.534;6.442;2023-03-22T11:50:34;94834.28;;;8.56;100.00
62634;BME280;48704;50.534;6.442;2023-03-22T11:53:01;94827.47;;;8.57;100.00
62634;BME280;48704;50.534;6.442;2023-03-22T11:55:29;94824.84;;;8.68;100.00
62634;BME280;48704;50.534;6.442;2023-03-22T11:57:58;94840.16;;;8.79;100.00
62634;BME280;48704;50.534;6.442;2023-03-22T12:00:26;94835.41;;;8.64;100.00
62634;BME280;48704;50.534;6.442;2023-03-22T12:02:56;94834.19;;;8.86;100.00
62634;BME280;48704;50.534;6.442;2023-03-22T12:05:27;94833.22;;;8.89;100.00
62634;BME280;48704;50.534;6.442;2023-03-22T12:07:58;94831.13;;;9.04;100.00
62634;BME280;48704;50.534;6.442;2023-03-22T12:10:41;94822.25;;;9.00;100.00
62634;BME280;48704;50.534;6.442;2023-03-22T12:15:45;94813.22;;;9.05;100.00
62634;BME280;48704;50.534;6.442;2023-03-22T12:18:16;94815.72;;;9.03;100.00
62634;BME280;48704;50.534;6.442;2023-03-22T12:20:53;94806.13;;;9.04;100.00
62634;BME280;48704;50.534;6.442;2023-03-22T12:23:22;94820.75;;;9.45;100.00
62634;BME280;48704;50.534;6.442;2023-03-22T12:26:35;94807.56;;;9.40;100.00
62634;BME280;48704;50.534;6.442;2023-03-22T12:31:34;94800.97;;;8.97;100.00
62634;BME280;48704;50.534;6.442;2023-03-22T12:34:05;94809.81;;;8.75;100.00
62634;BME280;48704;50.534;6.442;2023-03-22T12:36:38;94800.31;;;8.82;100.00
62634;BME280;48704;50.534;6.442;2023-03-22T12:39:07;94826.19;;;8.73;100.00
62634;BME280;48704;50.534;6.442;2023-03-22T12:41:36;94810.44;;;8.85;100.00
62634;BME280;48704;50.534;6.442;2023-03-22T12:44:10;94804.72;;;8.74;100.00
62634;BME280;48704;50.534;6.442;2023-03-22T12:46:48;94808.03;;;8.57;100.00
62634;BME280;48704;50.534;6.442;2023-03-22T12:49:25;94824.84;;;8.68;100.00
62634;BME280;48704;50.534;6.442;2023-03-22T12:51:53;94818.81;;;8.70;100.00
62634;BME280;48704;50.534;6.442;2023-03-22T12:54:22;94840.59;;;8.57;100.00
62634;BME280;48704;50.534;6.442;2023-03-22T12:56:49;94841.59;;;8.54;100.00
62634;BME280;48704;50.534;6.442;2023-03-22T12:59:21;94819.31;;;8.68;100.00
62634;BME280;48704;50.534;6.442;2023-03-22T13:01:52;94817.75;;;8.47;100.00
62634;BME280;48704;50.534;6.442;2023-03-22T13:09:36;94800.00;;;9.20;100.00
62634;BME280;48704;50.534;6.442;2023-03-22T13:22:26;94793.06;;;9.10;100.00
62634;BME280;48704;50.534;6.442;2023-03-22T13:25:04;94785.28;;;8.94;100.00
62634;BME280;48704;50.534;6.442;2023-03-22T13:30:03;94754.03;;;8.99;100.00
62634;BME280;48704;50.534;6.442;2023-03-22T13:32:33;94766.84;;;8.91;100.00
62634;BME280;48704;50.534;6.442;2023-03-22T13:34:59;94764.59;;;8.95;100.00
62634;BME280;48704;50.534;6.442;2023-03-22T13:37:34;94767.78;;;9.08;100.00
62634;BME280;48704;50.534;6.442;2023-03-22T13:43:08;94780.97;;;9.13;100.00
62634;BME280;48704;50.534;6.442;2023-03-22T13:45:34;94773.28;;;9.28;100.00
62634;BME280;48704;50.534;6.442;2023-03-22T13:48:03;94774.78;;;9.24;100.00
62634;BME280;48704;50.534;6.442;2023-03-22T13:50:30;94781.53;;;9.17;100.00
62634;BME280;48704;50.534;6.442;2023-03-22T13:53:01;94759.16;;;9.06;100.00
62634;BME280;48704;50.534;6.442;2023-03-22T14:01:25;94772.91;;;8.95;100.00
62634;BME280;48704;50.534;6.442;2023-03-22T14:03:52;94766.28;;;8.87;100.00
62634;BME280;48704;50.534;6.442;2023-03-22T14:06:24;94769.31;;;8.89;100.00
62634;BME280;48704;50.534;6.442;2023-03-22T14:08:58;94768.19;;;9.01;100.00